createdAt,value
2023-03-23T00:00:22.805Z,0.65
2023-03-23T00:02:22.816Z,0.66
2023-03-23T00:03:22.836Z,0.65
2023-03-23T00:04:22.851Z,0.64
2023-03-23T00:05:22.847Z,0.65
2023-03-23T00:06:22.849Z,0.67
2023-03-23T00:07:22.856Z,0.66
2023-03-23T00:08:22.875Z,0.67
2023-03-23T00:09:22.891Z,0.67
2023-03-23T00:10:22.948Z,0.66
2023-03-23T00:13:22.959Z,0.62
2023-03-23T00:14:22.961Z,0.62
2023-03-23T00:15:22.957Z,0.62
2023-03-23T00:17:22.970Z,0.65
2023-03-23T00:18:22.981Z,0.64
2023-03-23T00:19:23.001Z,0.66
2023-03-23T00:20:22.997Z,0.65
2023-03-23T00:21:23.007Z,0.63
2023-03-23T00:22:23.012Z,0.63
2023-03-23T00:23:23.032Z,0.64
2023-03-23T00:24:23.052Z,0.63
2023-03-23T00:25:23.095Z,0.63
2023-03-23T00:26:23.077Z,0.63
2023-03-23T00:27:23.083Z,0.63
2023-03-23T00:28:23.090Z,0.64
2023-03-23T00:29:23.106Z,0.64
2023-03-23T00:30:23.137Z,0.64
2023-03-23T00:31:23.129Z,0.65
2023-03-23T00:32:23.160Z,0.63
2023-03-23T00:35:23.190Z,0.64
2023-03-23T00:36:23.168Z,0.64
2023-03-23T00:37:23.184Z,0.62
2023-03-23T00:38:23.203Z,0.64
2023-03-23T00:39:23.211Z,0.64
2023-03-23T00:40:23.213Z,0.63
2023-03-23T00:41:23.215Z,0.63
2023-03-23T00:42:23.223Z,0.64
2023-03-23T00:43:23.234Z,0.63
2023-03-23T00:44:23.249Z,0.64
2023-03-23T00:47:23.267Z,0.64
2023-03-23T00:49:23.265Z,0.60
2023-03-23T00:50:29.503Z,0.60
2023-03-23T00:51:24.277Z,0.60
2023-03-23T00:53:23.296Z,0.61
2023-03-23T00:54:23.317Z,0.61
2023-03-23T00:55:23.313Z,0.61
2023-03-23T00:56:23.345Z,0.63
2023-03-23T00:57:23.318Z,0.62
2023-03-23T00:58:23.332Z,0.60
2023-03-23T00:59:23.357Z,0.59
2023-03-23T01:00:23.354Z,0.59
2023-03-23T01:02:23.369Z,0.60
2023-03-23T01:03:23.361Z,0.59
2023-03-23T01:04:23.396Z,0.61
2023-03-23T01:05:23.383Z,0.60
2023-03-23T01:06:23.382Z,0.61
2023-03-23T01:07:23.394Z,0.60
2023-03-23T01:08:23.405Z,0.60
2023-03-23T01:09:23.404Z,0.62
2023-03-23T01:10:23.409Z,0.61
2023-03-23T01:11:23.426Z,0.61
2023-03-23T01:12:23.444Z,0.60
2023-03-23T01:13:23.441Z,0.62
2023-03-23T01:14:23.455Z,0.62
2023-03-23T01:15:23.473Z,0.60
2023-03-23T01:16:23.480Z,0.60
2023-03-23T01:17:23.484Z,0.61
2023-03-23T01:18:23.497Z,0.61
2023-03-23T01:19:24.635Z,0.61
2023-03-23T01:21:23.559Z,0.61
2023-03-23T01:22:23.579Z,0.62
2023-03-23T01:23:23.589Z,0.62
2023-03-23T01:24:23.591Z,0.62
2023-03-23T01:25:23.598Z,0.61
2023-03-23T01:26:23.615Z,0.63
2023-03-23T01:27:23.633Z,0.61
2023-03-23T01:28:23.651Z,0.62
2023-03-23T01:29:23.669Z,0.63
2023-03-23T01:30:23.687Z,0.62
2023-03-23T01:31:23.710Z,0.61
2023-03-23T01:32:23.714Z,0.62
2023-03-23T01:33:23.722Z,0.61
2023-03-23T01:34:23.748Z,0.60
2023-03-23T01:35:23.762Z,0.63
2023-03-23T01:36:23.765Z,0.62
2023-03-23T01:37:23.785Z,0.61
2023-03-23T01:38:23.819Z,0.61
2023-03-23T01:39:23.820Z,0.61
2023-03-23T01:40:23.831Z,0.60
2023-03-23T01:41:23.839Z,0.60
2023-03-23T01:42:23.862Z,0.60
2023-03-23T01:44:23.900Z,0.59
2023-03-23T01:45:23.906Z,0.60
2023-03-23T01:46:23.940Z,0.61
2023-03-23T01:47:23.949Z,0.60
2023-03-23T01:48:23.958Z,0.60
2023-03-23T01:49:23.977Z,0.61
2023-03-23T01:50:23.981Z,0.61
2023-03-23T01:51:30.730Z,0.60
2023-03-23T01:52:25.012Z,0.60
2023-03-23T01:53:24.018Z,0.60
2023-03-23T01:54:24.026Z,0.60
2023-03-23T01:55:24.054Z,0.61
2023-03-23T01:57:24.063Z,0.61
2023-03-23T01:58:24.083Z,0.61
2023-03-23T01:59:24.098Z,0.61
2023-03-23T02:00:24.138Z,0.60
2023-03-23T02:01:24.131Z,0.60
2023-03-23T02:02:24.135Z,0.62
2023-03-23T02:03:24.143Z,0.60
2023-03-23T02:04:24.162Z,0.60
2023-03-23T02:05:24.174Z,0.62
2023-03-23T02:06:24.208Z,0.61
2023-03-23T02:07:24.224Z,0.62
2023-03-23T02:08:24.222Z,0.61
2023-03-23T02:09:24.234Z,0.60
2023-03-23T02:10:24.251Z,0.59
2023-03-23T02:11:24.263Z,0.60
2023-03-23T02:12:24.266Z,0.59
2023-03-23T02:13:24.292Z,0.60
2023-03-23T02:14:24.295Z,0.59
2023-03-23T02:18:24.336Z,0.59
2023-03-23T02:19:24.349Z,0.59
2023-03-23T02:20:24.366Z,0.58
2023-03-23T02:21:24.381Z,0.56
2023-03-23T02:22:24.403Z,0.56
2023-03-23T02:23:24.413Z,0.58
2023-03-23T02:24:24.421Z,0.58
2023-03-23T02:25:24.447Z,0.58
2023-03-23T02:26:24.452Z,0.58
2023-03-23T02:27:24.488Z,0.58
2023-03-23T02:28:24.485Z,0.59
2023-03-23T02:29:24.489Z,0.59
2023-03-23T02:30:24.492Z,0.59
2023-03-23T02:31:24.492Z,0.58
2023-03-23T02:32:24.495Z,0.58
2023-03-23T02:33:24.531Z,0.57
2023-03-23T02:34:24.525Z,0.58
2023-03-23T02:35:24.582Z,0.59
2023-03-23T02:36:24.533Z,0.57
2023-03-23T02:38:24.538Z,0.58
2023-03-23T02:39:24.569Z,0.59
2023-03-23T02:40:24.577Z,0.57
2023-03-23T02:41:24.580Z,0.56
2023-03-23T02:43:24.591Z,0.56
2023-03-23T02:44:25.613Z,0.56
2023-03-23T02:47:24.617Z,0.57
2023-03-23T02:48:24.626Z,0.58
2023-03-23T02:49:24.676Z,0.59
2023-03-23T02:50:24.664Z,0.56
2023-03-23T02:51:24.659Z,0.54
2023-03-23T02:52:24.662Z,0.56
2023-03-23T02:53:24.665Z,0.57
2023-03-23T02:54:24.680Z,0.57
2023-03-23T02:55:24.699Z,0.57
2023-03-23T02:56:24.715Z,0.57
2023-03-23T02:58:24.696Z,0.56
2023-03-23T02:59:24.714Z,0.56
2023-03-23T03:00:24.765Z,0.56
2023-03-23T03:01:24.748Z,0.53
2023-03-23T03:02:24.726Z,0.53
2023-03-23T03:03:24.751Z,0.55
2023-03-23T03:04:24.748Z,0.55
2023-03-23T03:05:24.760Z,0.55
2023-03-23T03:06:24.787Z,0.55
2023-03-23T03:09:24.799Z,0.54
2023-03-23T03:10:24.795Z,0.55
2023-03-23T03:11:24.806Z,0.55
2023-03-23T03:12:24.821Z,0.56
2023-03-23T03:13:24.837Z,0.55
2023-03-23T03:14:24.842Z,0.55
2023-03-23T03:15:24.873Z,0.54
2023-03-23T03:16:24.876Z,0.55
2023-03-23T03:17:24.919Z,0.55
2023-03-23T03:18:24.908Z,0.53
2023-03-23T03:19:24.917Z,0.54
2023-03-23T03:20:24.932Z,0.53
2023-03-23T03:21:24.945Z,0.53
2023-03-23T03:22:24.959Z,0.53
2023-03-23T03:23:24.982Z,0.54
2023-03-23T03:24:24.975Z,0.53
2023-03-23T03:25:24.983Z,0.53
2023-03-23T03:26:24.987Z,0.54
2023-03-23T03:27:24.999Z,0.52
2023-03-23T03:28:25.004Z,0.52
2023-03-23T03:29:25.003Z,0.53
2023-03-23T03:30:25.002Z,0.53
2023-03-23T03:31:25.030Z,0.53
2023-03-23T03:32:25.032Z,0.53
2023-03-23T03:33:25.050Z,0.55
2023-03-23T03:34:25.044Z,0.52
2023-03-23T03:36:25.049Z,0.51
2023-03-23T03:37:25.084Z,0.53
2023-03-23T03:38:25.076Z,0.51
2023-03-23T03:39:25.082Z,0.51
2023-03-23T03:40:25.083Z,0.52
2023-03-23T03:41:25.093Z,0.53
2023-03-23T03:42:25.110Z,0.54
2023-03-23T03:43:25.125Z,0.53
2023-03-23T03:44:25.118Z,0.50
2023-03-23T03:45:25.213Z,0.52
2023-03-23T03:48:25.203Z,0.53
2023-03-23T03:51:27.600Z,0.54
2023-03-23T03:52:25.205Z,0.53
2023-03-23T03:53:28.861Z,0.54
2023-03-23T03:54:25.248Z,0.54
2023-03-23T03:56:25.276Z,0.53
2023-03-23T03:57:25.258Z,0.52
2023-03-23T03:58:25.258Z,0.54
2023-03-23T03:59:25.282Z,0.53
2023-03-23T04:00:25.296Z,0.54
2023-03-23T04:03:25.318Z,0.55
2023-03-23T04:04:25.329Z,0.54
2023-03-23T04:05:25.329Z,0.52
2023-03-23T04:06:25.361Z,0.54
2023-03-23T04:07:25.365Z,0.54
2023-03-23T04:08:25.376Z,0.55
2023-03-23T04:09:25.401Z,0.54
2023-03-23T04:13:25.440Z,0.54
2023-03-23T04:14:25.449Z,0.53
2023-03-23T04:15:25.480Z,0.53
2023-03-23T04:16:25.499Z,0.53
2023-03-23T04:17:25.496Z,0.53
2023-03-23T04:18:25.556Z,0.54
2023-03-23T04:19:25.571Z,0.54
2023-03-23T04:22:25.561Z,0.54
2023-03-23T04:23:25.594Z,0.54
2023-03-23T04:25:25.604Z,0.54
2023-03-23T04:26:25.634Z,0.56
2023-03-23T04:27:25.641Z,0.55
2023-03-23T04:28:25.682Z,0.54
2023-03-23T04:29:25.674Z,0.55
2023-03-23T04:30:25.684Z,0.55
2023-03-23T04:31:25.712Z,0.55
2023-03-23T04:32:25.729Z,0.54
2023-03-23T04:33:25.805Z,0.54
2023-03-23T04:34:26.763Z,0.54
2023-03-23T04:35:25.759Z,0.55
2023-03-23T04:36:25.786Z,0.55
2023-03-23T04:37:26.815Z,0.54
2023-03-23T04:40:25.868Z,0.55
2023-03-23T04:41:25.872Z,0.55
2023-03-23T04:42:25.886Z,0.55
2023-03-23T04:43:25.908Z,0.56
2023-03-23T04:44:25.929Z,0.54
2023-03-23T04:45:25.947Z,0.54
2023-03-23T04:46:25.960Z,0.53
2023-03-23T04:47:26.003Z,0.54
2023-03-23T04:53:26.085Z,0.52
2023-03-23T04:54:26.086Z,0.53
2023-03-23T04:55:26.102Z,0.54
2023-03-23T04:56:26.110Z,0.54
2023-03-23T04:57:26.135Z,0.54
2023-03-23T04:58:26.148Z,0.52
2023-03-23T04:59:26.166Z,0.53
2023-03-23T05:00:26.188Z,0.52
2023-03-23T05:01:26.214Z,0.52
2023-03-23T05:02:26.224Z,0.52
2023-03-23T05:05:26.281Z,0.53
2023-03-23T05:06:26.309Z,0.53
2023-03-23T05:07:26.329Z,0.53
2023-03-23T05:08:26.326Z,0.53
2023-03-23T05:09:26.330Z,0.52
2023-03-23T05:10:26.335Z,0.51
2023-03-23T05:11:26.351Z,0.52
2023-03-23T05:12:26.365Z,0.52
2023-03-23T05:13:26.419Z,0.52
2023-03-23T05:14:26.388Z,0.53
2023-03-23T05:15:26.437Z,0.53
2023-03-23T05:16:26.414Z,0.52
2023-03-23T05:17:26.431Z,0.52
2023-03-23T05:18:26.430Z,0.52
2023-03-23T05:19:26.471Z,0.53
2023-03-23T05:20:26.450Z,0.53
2023-03-23T05:21:26.499Z,0.53
2023-03-23T05:25:26.501Z,0.52
2023-03-23T05:26:26.513Z,0.52
2023-03-23T05:27:26.527Z,0.52
2023-03-23T05:28:26.548Z,0.52
2023-03-23T05:29:26.565Z,0.53
2023-03-23T05:30:26.581Z,0.52
2023-03-23T05:31:26.580Z,0.53
2023-03-23T05:32:26.581Z,0.52
2023-03-23T05:33:26.602Z,0.52
2023-03-23T05:34:26.627Z,0.51
2023-03-23T05:35:26.641Z,0.50
2023-03-23T05:36:26.646Z,0.51
2023-03-23T05:37:26.660Z,0.52
2023-03-23T05:38:26.665Z,0.50
2023-03-23T05:39:26.681Z,0.51
2023-03-23T05:40:26.696Z,0.51
2023-03-23T05:41:26.706Z,0.52
2023-03-23T05:42:26.731Z,0.52
2023-03-23T05:43:26.723Z,0.51
2023-03-23T05:44:26.738Z,0.52
2023-03-23T05:45:26.737Z,0.52
2023-03-23T05:46:26.766Z,0.52
2023-03-23T05:47:26.773Z,0.52
2023-03-23T05:48:26.811Z,0.52
2023-03-23T05:49:26.810Z,0.52
2023-03-23T05:50:26.821Z,0.52
2023-03-23T05:51:26.841Z,0.53
2023-03-23T05:52:26.835Z,0.52
2023-03-23T05:53:26.855Z,0.52
2023-03-23T05:54:26.874Z,0.53
2023-03-23T05:55:26.893Z,0.51
2023-03-23T05:57:26.916Z,0.51
2023-03-23T05:58:28.708Z,0.51
2023-03-23T05:59:26.933Z,0.51
2023-03-23T06:00:26.955Z,0.51
2023-03-23T06:01:26.980Z,0.51
2023-03-23T06:02:27.008Z,0.51
2023-03-23T06:03:27.008Z,0.50
2023-03-23T06:04:27.009Z,0.50
2023-03-23T06:05:27.036Z,0.51
2023-03-23T06:06:27.033Z,0.50
2023-03-23T06:07:27.089Z,0.51
2023-03-23T06:08:27.073Z,0.51
2023-03-23T06:09:27.104Z,0.51
2023-03-23T06:10:27.108Z,0.50
2023-03-23T06:11:27.136Z,0.51
2023-03-23T06:12:27.130Z,0.51
2023-03-23T06:13:27.152Z,0.51
2023-03-23T06:14:27.169Z,0.51
2023-03-23T06:15:27.157Z,0.51
2023-03-23T06:16:27.188Z,0.51
2023-03-23T06:17:27.193Z,0.52
2023-03-23T06:18:27.205Z,0.51
2023-03-23T06:19:27.483Z,0.51
2023-03-23T06:20:27.248Z,0.51
2023-03-23T06:21:27.226Z,0.52
2023-03-23T06:22:27.238Z,0.52
2023-03-23T06:23:27.246Z,0.52
2023-03-23T06:24:27.279Z,0.50
2023-03-23T06:28:27.303Z,0.53
2023-03-23T06:29:27.458Z,0.53
2023-03-23T06:30:27.766Z,0.53
2023-03-23T06:31:27.539Z,0.53
2023-03-23T06:33:27.392Z,0.50
2023-03-23T06:34:27.393Z,0.51
2023-03-23T06:36:27.400Z,0.38
2023-03-23T06:37:27.426Z,0.47
2023-03-23T06:38:27.430Z,0.54
2023-03-23T06:39:27.465Z,0.66
2023-03-23T06:40:27.506Z,0.74
2023-03-23T06:41:27.484Z,0.84
2023-03-23T06:42:27.499Z,0.92
2023-03-23T06:43:27.500Z,1.02
2023-03-23T06:44:27.558Z,1.03
2023-03-23T06:45:27.534Z,1.06
2023-03-23T06:46:27.601Z,1.11
2023-03-23T06:49:27.579Z,1.20
2023-03-23T06:50:27.722Z,1.15
2023-03-23T06:51:27.571Z,1.24
2023-03-23T06:52:27.585Z,1.24
2023-03-23T06:53:27.590Z,1.26
2023-03-23T06:54:27.592Z,1.30
2023-03-23T06:55:27.920Z,1.38
2023-03-23T06:59:27.595Z,1.64
2023-03-23T07:00:27.608Z,1.73
2023-03-23T07:01:27.601Z,1.76
2023-03-23T07:02:27.600Z,1.78
2023-03-23T07:03:27.607Z,1.90
2023-03-23T07:04:27.611Z,1.97
2023-03-23T07:06:27.611Z,2.01
2023-03-23T07:07:27.614Z,2.05
2023-03-23T07:08:27.618Z,2.14
2023-03-23T07:13:27.639Z,2.75
2023-03-23T07:14:27.607Z,2.75
2023-03-23T07:15:27.606Z,2.80
2023-03-23T07:16:27.623Z,2.89
2023-03-23T07:17:27.625Z,3.11
2023-03-23T07:18:27.631Z,3.37
2023-03-23T07:19:27.597Z,3.57
2023-03-23T07:20:27.666Z,3.58
2023-03-23T07:24:27.606Z,3.58
2023-03-23T07:25:27.616Z,3.63
2023-03-23T07:27:27.592Z,3.78
2023-03-23T07:28:27.596Z,3.76
2023-03-23T07:29:27.842Z,3.83
2023-03-23T07:31:27.588Z,3.45
2023-03-23T07:32:27.602Z,3.34
2023-03-23T07:33:27.583Z,3.57
2023-03-23T07:34:27.576Z,3.82
2023-03-23T07:36:27.561Z,3.69
2023-03-23T07:37:27.558Z,2.89
2023-03-23T07:38:27.561Z,2.84
2023-03-23T07:39:27.566Z,2.34
2023-03-23T07:40:27.660Z,1.76
2023-03-23T07:42:27.565Z,1.07
2023-03-23T07:43:27.545Z,1.31
2023-03-23T07:44:27.571Z,1.60
2023-03-23T07:45:27.965Z,1.69
2023-03-23T07:46:27.959Z,1.54
2023-03-23T07:47:33.977Z,1.21
2023-03-23T07:48:28.558Z,1.18
2023-03-23T07:53:27.602Z,0.80
2023-03-23T07:54:27.753Z,0.60
2023-03-23T07:56:27.720Z,0.77
2023-03-23T07:57:27.635Z,0.70
2023-03-23T07:58:27.603Z,0.59
2023-03-23T07:59:27.627Z,0.60
2023-03-23T08:03:27.647Z,0.67
2023-03-23T08:04:27.648Z,0.68
2023-03-23T08:05:27.639Z,0.67
2023-03-23T08:06:27.952Z,0.77
2023-03-23T08:07:27.630Z,0.54
2023-03-23T08:08:27.641Z,0.69
2023-03-23T08:09:27.656Z,0.63
2023-03-23T08:10:27.624Z,0.65
2023-03-23T08:16:27.604Z,0.58
2023-03-23T08:18:27.606Z,0.60
2023-03-23T08:19:27.639Z,0.77
2023-03-23T08:21:27.677Z,0.82
2023-03-23T08:22:27.633Z,0.97
2023-03-23T08:23:27.586Z,0.97
2023-03-23T08:24:27.600Z,0.98
2023-03-23T08:25:27.543Z,1.02
2023-03-23T08:26:27.548Z,1.05
2023-03-23T08:29:27.541Z,1.01
2023-03-23T08:31:27.594Z,0.82
2023-03-23T08:32:27.491Z,0.67
2023-03-23T08:35:27.471Z,0.34
2023-03-23T08:36:27.489Z,0.41
2023-03-23T08:37:27.557Z,0.63
2023-03-23T08:38:27.468Z,0.78
2023-03-23T08:42:27.501Z,0.86
2023-03-23T08:43:27.422Z,0.71
2023-03-23T08:44:27.448Z,0.46
2023-03-23T08:48:27.401Z,0.39
2023-03-23T08:49:27.404Z,0.43
2023-03-23T08:50:27.403Z,0.48
2023-03-23T08:51:27.423Z,0.37
2023-03-23T08:52:27.412Z,0.43
2023-03-23T08:53:27.408Z,0.41
2023-03-23T08:54:27.411Z,0.34
2023-03-23T08:55:27.453Z,0.38
2023-03-23T09:00:33.271Z,0.34
2023-03-23T09:01:28.493Z,0.34
2023-03-23T09:02:27.476Z,0.34
2023-03-23T09:03:27.489Z,0.34
2023-03-23T09:04:27.525Z,0.34
2023-03-23T09:05:27.528Z,0.34
2023-03-23T09:06:28.935Z,0.34
2023-03-23T09:08:27.617Z,0.34
2023-03-23T09:09:27.533Z,0.37
2023-03-23T09:10:27.544Z,0.47
2023-03-23T09:11:27.637Z,0.52
2023-03-23T09:12:27.559Z,0.54
2023-03-23T09:13:27.726Z,0.51
2023-03-23T09:14:27.604Z,0.47
2023-03-23T09:15:33.186Z,0.55
2023-03-23T09:16:28.663Z,0.55
2023-03-23T09:17:27.642Z,0.55
2023-03-23T09:21:27.681Z,0.44
2023-03-23T09:22:27.690Z,0.49
2023-03-23T09:23:27.705Z,0.42
2023-03-23T09:24:27.726Z,0.51
2023-03-23T09:25:27.772Z,0.50
2023-03-23T09:26:27.753Z,0.45
2023-03-23T09:28:27.868Z,0.38
2023-03-23T09:32:27.834Z,0.56
2023-03-23T09:33:27.860Z,0.61
2023-03-23T09:34:27.873Z,0.96
2023-03-23T09:35:28.008Z,2.24
2023-03-23T09:36:27.906Z,3.73
2023-03-23T09:37:27.937Z,2.45
2023-03-23T09:38:27.950Z,2.79
2023-03-23T09:39:27.953Z,3.05
2023-03-23T09:40:28.088Z,3.74
2023-03-23T09:41:28.089Z,3.99
2023-03-23T09:47:28.068Z,2.58
2023-03-23T09:48:28.092Z,2.98
2023-03-23T09:49:28.064Z,3.74
2023-03-23T09:50:28.070Z,4.96
2023-03-23T09:51:28.084Z,2.38
2023-03-23T09:52:28.170Z,2.81
2023-03-23T09:58:28.085Z,11.23
2023-03-23T09:59:28.085Z,12.50
2023-03-23T10:00:28.095Z,14.53
2023-03-23T10:01:28.070Z,17.57
2023-03-23T10:02:28.091Z,22.01
2023-03-23T10:03:28.099Z,25.90
2023-03-23T10:04:28.141Z,32.01
2023-03-23T10:06:28.077Z,36.32
2023-03-23T10:08:28.068Z,46.17
2023-03-23T10:11:28.039Z,63.75
2023-03-23T10:12:28.080Z,63.42
2023-03-23T10:14:28.369Z,75.85
2023-03-23T10:15:28.008Z,77.06
2023-03-23T10:16:28.010Z,80.52
2023-03-23T10:17:28.023Z,87.24
2023-03-23T10:18:28.017Z,99.24
2023-03-23T10:20:28.103Z,108.87
2023-03-23T10:23:27.952Z,116.94
2023-03-23T10:25:27.921Z,141.31
2023-03-23T10:26:27.925Z,153.48
2023-03-23T10:27:27.892Z,150.54
2023-03-23T10:28:28.103Z,149.32
2023-03-23T10:30:27.872Z,178.05
2023-03-23T10:32:27.838Z,172.80
2023-03-23T10:33:27.835Z,186.37
2023-03-23T10:38:27.787Z,200.12
2023-03-23T10:39:27.759Z,223.01
2023-03-23T10:40:27.759Z,240.58
2023-03-23T10:41:27.759Z,267.77
2023-03-23T10:42:27.753Z,288.72
2023-03-23T10:43:27.718Z,260.02
2023-03-23T10:44:30.562Z,262.27
2023-03-23T10:49:27.655Z,135.69
2023-03-23T10:50:27.619Z,110.69
2023-03-23T10:51:27.676Z,77.04
2023-03-23T10:52:27.598Z,75.68
2023-03-23T10:53:27.572Z,84.67
2023-03-23T10:57:28.516Z,108.58
2023-03-23T10:58:27.999Z,108.87
2023-03-23T11:00:27.451Z,107.15
2023-03-23T11:01:27.489Z,115.49
2023-03-23T11:02:29.647Z,133.51
2023-03-23T11:03:27.397Z,109.41
2023-03-23T11:04:27.499Z,111.32
2023-03-23T11:07:27.320Z,163.50
2023-03-23T11:08:27.339Z,142.20
2023-03-23T11:09:27.303Z,106.75
2023-03-23T11:12:27.236Z,118.74
2023-03-23T11:13:27.238Z,92.08
2023-03-23T11:15:27.175Z,90.97
2023-03-23T11:17:27.145Z,80.24
2023-03-23T11:18:28.035Z,68.35
2023-03-23T11:21:27.061Z,94.32
2023-03-23T11:22:27.032Z,93.08
2023-03-23T11:23:27.017Z,92.24
2023-03-23T11:28:26.925Z,94.09
2023-03-23T11:29:26.899Z,120.95
2023-03-23T11:30:26.881Z,142.92
2023-03-23T11:31:26.899Z,155.93
2023-03-23T11:32:26.855Z,148.92
2023-03-23T11:33:26.803Z,144.76
2023-03-23T11:34:26.786Z,157.86
2023-03-23T11:40:26.638Z,196.39
2023-03-23T11:41:26.651Z,244.83
2023-03-23T11:42:26.592Z,280.01
2023-03-23T11:43:26.561Z,292.43
2023-03-23T11:44:26.537Z,301.05
2023-03-23T11:45:26.517Z,295.89
2023-03-23T11:46:27.026Z,278.04
2023-03-23T11:49:28.129Z,233.67
2023-03-23T11:53:26.339Z,205.14
2023-03-23T11:54:26.313Z,205.42
2023-03-23T11:55:26.382Z,189.45
2023-03-23T11:56:26.246Z,184.81
2023-03-23T11:58:26.222Z,169.47
2023-03-23T12:00:26.163Z,162.46
2023-03-23T12:02:26.192Z,146.31
2023-03-23T12:04:26.108Z,133.02
2023-03-23T12:08:26.006Z,122.96
2023-03-23T12:09:26.004Z,120.46
2023-03-23T12:10:35.474Z,118.73
2023-03-23T12:11:26.928Z,118.75
2023-03-23T12:12:25.902Z,117.90
2023-03-23T12:13:25.871Z,103.69
2023-03-23T12:14:27.523Z,101.83
2023-03-23T12:15:26.858Z,110.29
2023-03-23T12:21:25.739Z,88.53
2023-03-23T12:22:25.716Z,90.31
2023-03-23T12:23:25.717Z,82.17
2023-03-23T12:24:25.891Z,78.61
2023-03-23T12:25:25.681Z,79.77
2023-03-23T12:31:25.560Z,89.74
2023-03-23T12:32:25.607Z,95.55
2023-03-23T12:33:25.570Z,93.97
2023-03-23T12:34:25.483Z,88.14
2023-03-23T12:36:25.467Z,91.69
2023-03-23T12:37:25.430Z,92.75
2023-03-23T12:41:25.344Z,82.20
2023-03-23T12:42:25.351Z,80.09
2023-03-23T12:43:25.309Z,83.05
2023-03-23T12:44:25.299Z,80.35
2023-03-23T12:45:25.323Z,81.60
2023-03-23T12:47:25.269Z,75.68
2023-03-23T12:48:25.266Z,72.88
2023-03-23T12:49:25.210Z,74.64
2023-03-23T12:50:25.222Z,81.01
2023-03-23T12:51:25.200Z,78.84
2023-03-23T12:52:25.204Z,80.73
2023-03-23T12:55:25.139Z,79.91
2023-03-23T12:58:25.071Z,76.95
2023-03-23T12:59:25.057Z,76.92
2023-03-23T13:00:25.058Z,76.52
2023-03-23T13:01:25.032Z,74.30
2023-03-23T13:03:25.012Z,76.16
2023-03-23T13:04:25.014Z,74.12
2023-03-23T13:05:24.978Z,74.61
2023-03-23T13:06:24.961Z,76.42
2023-03-23T13:07:25.958Z,71.00
2023-03-23T13:09:24.911Z,75.28
2023-03-23T13:10:24.905Z,72.31
2023-03-23T13:14:24.827Z,67.80
2023-03-23T13:15:24.913Z,68.06
2023-03-23T13:16:24.836Z,68.74
2023-03-23T13:17:24.786Z,63.57
2023-03-23T13:18:24.785Z,64.39
2023-03-23T13:20:24.752Z,70.03
2023-03-23T13:26:24.694Z,64.73
2023-03-23T13:27:24.678Z,60.67
2023-03-23T13:28:24.661Z,63.43
2023-03-23T13:29:24.643Z,65.29
2023-03-23T13:31:24.656Z,64.90
2023-03-23T13:37:24.558Z,58.76
2023-03-23T13:38:24.542Z,57.10
2023-03-23T13:39:24.553Z,56.37
2023-03-23T13:40:24.547Z,55.75
2023-03-23T13:41:24.518Z,53.92
2023-03-23T13:42:25.065Z,53.80
2023-03-23T13:43:24.507Z,48.40
2023-03-23T13:47:24.524Z,50.06
2023-03-23T13:49:24.428Z,42.70
2023-03-23T13:50:24.430Z,45.81
2023-03-23T13:52:24.375Z,42.56
2023-03-23T13:53:24.377Z,38.87
2023-03-23T13:54:25.367Z,38.94
2023-03-23T13:55:24.347Z,36.74
2023-03-23T13:57:24.315Z,34.87
2023-03-23T13:58:24.398Z,35.21
2023-03-23T13:59:24.289Z,34.52
2023-03-23T14:00:24.285Z,32.78
2023-03-23T14:04:24.226Z,32.09
2023-03-23T14:05:24.228Z,35.23
2023-03-23T14:06:24.221Z,33.34
2023-03-23T14:07:24.198Z,34.31
2023-03-23T14:08:24.193Z,36.11
2023-03-23T14:09:24.172Z,35.04
2023-03-23T14:10:24.196Z,35.18
2023-03-23T14:16:24.071Z,46.11
2023-03-23T14:17:24.066Z,46.22
2023-03-23T14:18:24.048Z,45.09
2023-03-23T14:19:24.002Z,44.66
2023-03-23T14:20:24.004Z,45.99
2023-03-23T14:21:24.582Z,47.37
2023-03-23T14:27:23.878Z,47.10
2023-03-23T14:28:24.122Z,46.53
2023-03-23T14:29:23.810Z,46.79
2023-03-23T14:30:23.784Z,45.24
2023-03-23T14:31:23.777Z,47.41
2023-03-23T14:33:23.745Z,45.42
2023-03-23T14:36:23.693Z,41.72
2023-03-23T14:38:23.653Z,44.61
2023-03-23T14:39:23.681Z,42.95
2023-03-23T14:40:23.588Z,41.06
2023-03-23T14:41:23.613Z,42.01
2023-03-23T14:44:23.540Z,41.51
2023-03-23T14:47:23.464Z,44.48
2023-03-23T14:48:23.434Z,41.57
2023-03-23T14:49:23.402Z,39.77
2023-03-23T14:50:23.395Z,39.62
2023-03-23T14:51:23.351Z,39.31
2023-03-23T14:55:23.267Z,36.16
2023-03-23T14:57:23.250Z,36.85
2023-03-23T14:58:23.198Z,37.78
2023-03-23T15:00:23.172Z,40.02
2023-03-23T15:01:23.120Z,38.76
2023-03-23T15:02:23.164Z,37.95
2023-03-23T15:03:23.109Z,37.25
2023-03-23T15:08:22.965Z,35.73
2023-03-23T15:09:22.939Z,34.55
2023-03-23T15:11:22.881Z,34.80
2023-03-23T15:13:22.853Z,31.68
2023-03-23T15:14:22.822Z,32.80
2023-03-23T15:18:22.722Z,32.80
2023-03-23T15:19:22.697Z,30.42
2023-03-23T15:20:22.728Z,30.74
2023-03-23T15:22:22.644Z,32.85
2023-03-23T15:23:22.627Z,32.24
2023-03-23T15:26:22.571Z,30.31
2023-03-23T15:27:22.537Z,32.34
2023-03-23T15:28:22.510Z,32.37
2023-03-23T15:29:26.656Z,32.42
2023-03-23T15:32:22.408Z,33.06
2023-03-23T15:35:22.351Z,33.21
2023-03-23T15:36:22.376Z,30.28
2023-03-23T15:37:22.330Z,29.96
2023-03-23T15:38:22.288Z,29.96
2023-03-23T15:39:22.260Z,31.01
2023-03-23T15:42:22.233Z,33.25
2023-03-23T15:45:22.133Z,33.20
2023-03-23T15:46:22.143Z,31.97
2023-03-23T15:47:22.099Z,32.88
2023-03-23T15:49:22.040Z,31.59
2023-03-23T15:50:22.015Z,31.56
2023-03-23T15:52:21.982Z,30.40
2023-03-23T15:54:21.945Z,26.48
2023-03-23T15:56:21.884Z,24.89
2023-03-23T15:58:21.867Z,25.91
2023-03-23T15:59:21.822Z,24.89
2023-03-23T16:00:21.796Z,24.21
2023-03-23T16:01:21.815Z,24.47
2023-03-23T16:03:21.791Z,23.80
2023-03-23T16:04:21.713Z,23.87
2023-03-23T16:08:21.636Z,23.00
2023-03-23T16:09:21.586Z,22.49
2023-03-23T16:10:21.596Z,22.14
2023-03-23T16:12:21.536Z,23.51
2023-03-23T16:13:21.528Z,22.92
2023-03-23T16:14:21.503Z,22.76
2023-03-23T16:17:21.441Z,21.75
2023-03-23T16:20:21.431Z,20.64
2023-03-23T16:21:21.355Z,21.19
2023-03-23T16:22:21.339Z,21.85
2023-03-23T16:23:21.322Z,20.14
2023-03-23T16:24:21.309Z,20.40
2023-03-23T16:27:21.309Z,20.70
2023-03-23T16:31:21.235Z,20.87
2023-03-23T16:32:21.228Z,21.51
2023-03-23T16:34:21.252Z,21.40
2023-03-23T16:35:21.055Z,22.07
2023-03-23T16:36:21.154Z,21.95
2023-03-23T16:37:21.016Z,21.41
2023-03-23T16:38:21.052Z,20.88
2023-03-23T16:39:20.982Z,20.16
2023-03-23T16:40:20.990Z,20.68
2023-03-23T16:43:20.903Z,20.43
2023-03-23T16:44:20.960Z,21.24
2023-03-23T16:46:21.020Z,22.06
2023-03-23T16:47:20.975Z,21.65
2023-03-23T16:48:20.870Z,22.58
2023-03-23T16:49:20.797Z,22.20
2023-03-23T16:50:20.782Z,22.28
2023-03-23T16:57:20.638Z,23.04
2023-03-23T16:58:20.647Z,22.68
2023-03-23T16:59:20.602Z,21.62
2023-03-23T17:00:20.580Z,22.34
2023-03-23T17:01:20.618Z,21.00
2023-03-23T17:02:20.562Z,21.57
2023-03-23T17:08:20.469Z,22.00
2023-03-23T17:09:20.458Z,21.23
2023-03-23T17:10:20.451Z,22.11
2023-03-23T17:11:20.420Z,21.41
2023-03-23T17:12:20.421Z,20.91
2023-03-23T17:15:20.365Z,21.91
2023-03-23T17:16:20.419Z,22.26
2023-03-23T17:20:20.312Z,21.91
2023-03-23T17:21:20.305Z,20.81
2023-03-23T17:22:20.303Z,22.88
2023-03-23T17:23:20.293Z,21.66
2023-03-23T17:24:20.283Z,21.96
2023-03-23T17:26:20.322Z,22.18
2023-03-23T17:27:20.250Z,21.49
2023-03-23T17:28:20.968Z,21.84
2023-03-23T17:30:20.223Z,21.86
2023-03-23T17:32:20.188Z,21.95
2023-03-23T17:34:20.156Z,21.88
2023-03-23T17:35:20.158Z,21.86
2023-03-23T17:36:20.245Z,21.17
2023-03-23T17:38:20.144Z,20.48
2023-03-23T17:39:20.127Z,19.65
2023-03-23T17:40:20.133Z,20.66
2023-03-23T17:42:20.087Z,21.19
2023-03-23T17:46:20.125Z,21.46
2023-03-23T17:48:20.049Z,20.83
2023-03-23T17:50:20.054Z,21.63
2023-03-23T17:51:20.029Z,21.86
2023-03-23T17:52:20.027Z,21.31
2023-03-23T17:54:20.022Z,21.84
2023-03-23T17:56:20.133Z,23.76
2023-03-23T17:57:20.138Z,22.89
2023-03-23T17:58:19.962Z,23.06
2023-03-23T17:59:19.959Z,23.49
2023-03-23T18:00:19.966Z,23.72
2023-03-23T18:01:19.982Z,23.72
2023-03-23T18:03:19.972Z,23.88
2023-03-23T18:04:19.919Z,23.94
2023-03-23T18:06:19.905Z,23.35
2023-03-23T18:07:19.901Z,22.60
2023-03-23T18:11:19.872Z,23.77
2023-03-23T18:12:19.852Z,23.52
2023-03-23T18:14:19.848Z,23.68
2023-03-23T18:15:19.843Z,22.53
2023-03-23T18:17:19.844Z,23.25
2023-03-23T18:18:19.814Z,22.37
2023-03-23T18:19:19.815Z,23.09
2023-03-23T18:23:19.796Z,22.08
2023-03-23T18:25:19.765Z,21.32
2023-03-23T18:26:19.761Z,20.79
2023-03-23T18:27:19.759Z,18.52
2023-03-23T18:28:19.753Z,20.01
2023-03-23T18:29:19.741Z,20.94
2023-03-23T18:30:19.770Z,20.39